Time;durP1;ratioP1;P1;durP2;ratioP2;P2;SDS_P1;SDS_P2;PMS_P1;PMS_P2;Temp;Humidity;BMP_temperature;BMP_pressure;BME280_temperature;BME280_humidity;BME280_pressure;Samples;Min_cycle;Max_cycle;Signal;HPM_P1;HPM_P2
2021/08/03 00:00:37;;;;;;;3.45;3.00;;;;;;;;;;4952719;29;20023;-74
2021/08/03 00:03:06;;;;;;;4.75;3.20;;;;;;;;;;4949579;28;20396;-67
2021/08/03 00:05:41;;;;;;;4.05;3.15;;;;;;;;;;4958184;29;20028;-75
2021/08/03 00:08:15;;;;;;;4.43;3.13;;;;;;;;;;4945651;28;20485;-68
2021/08/03 00:10:41;;;;;;;5.30;3.00;;;;;;;;;;4951547;28;20448;-71
2021/08/03 00:13:08;;;;;;;5.28;2.80;;;;;;;;;;4951817;28;20027;-67
2021/08/03 00:15:34;;;;;;;4.90;3.08;;;;;;;;;;4951702;29;20229;-68
2021/08/03 00:18:01;;;;;;;4.35;3.10;;;;;;;;;;4951712;28;20038;-73
2021/08/03 00:20:27;;;;;;;4.03;3.00;;;;;;;;;;4952300;28;20046;-74
2021/08/03 00:22:59;;;;;;;4.50;3.08;;;;;;;;;;4951257;29;20110;-75
2021/08/03 00:25:26;;;;;;;5.40;3.08;;;;;;;;;;4951012;28;20042;-68
2021/08/03 00:27:52;;;;;;;6.47;3.30;;;;;;;;;;4950389;28;20111;-68
2021/08/03 00:30:18;;;;;;;5.82;2.92;;;;;;;;;;4951328;29;20043;-69
2021/08/03 00:32:45;;;;;;;4.90;3.00;;;;;;;;;;4951524;28;20170;-67
2021/08/03 00:35:11;;;;;;;4.95;3.10;;;;;;;;;;4948832;28;20065;-69
2021/08/03 00:37:37;;;;;;;4.28;2.90;;;;;;;;;;4950675;28;20020;-70
2021/08/03 00:40:04;;;;;;;4.07;3.08;;;;;;;;;;4951424;29;20453;-71
2021/08/03 00:42:30;;;;;;;4.22;3.00;;;;;;;;;;4952049;28;20023;-68
2021/08/03 00:44:58;;;;;;;4.55;3.10;;;;;;;;;;4954217;28;20577;-68
2021/08/03 00:47:24;;;;;;;10.43;3.33;;;;;;;;;;4954481;28;20112;-68
2021/08/03 00:49:50;;;;;;;5.00;3.22;;;;;;;;;;4952092;28;20055;-68
2021/08/03 00:52:17;;;;;;;4.80;2.88;;;;;;;;;;4954270;29;20037;-69
2021/08/03 00:54:43;;;;;;;3.25;2.95;;;;;;;;;;4955718;29;20082;-73
2021/08/03 00:57:10;;;;;;;3.97;3.00;;;;;;;;;;4956422;28;20054;-68
2021/08/03 00:59:36;;;;;;;6.20;3.00;;;;;;;;;;4950034;28;20023;-75
2021/08/03 01:02:03;;;;;;;4.70;3.15;;;;;;;;;;4954147;28;20111;-73
2021/08/03 01:04:29;;;;;;;4.30;3.03;;;;;;;;;;4955144;28;20090;-72
2021/08/03 01:07:11;;;;;;;4.72;3.22;;;;;;;;;;4955462;28;20033;-68
2021/08/03 01:09:38;;;;;;;5.35;3.13;;;;;;;;;;4956148;28;20035;-75
2021/08/03 01:12:16;;;;;;;4.47;3.00;;;;;;;;;;4954678;28;20053;-72
2021/08/03 01:14:45;;;;;;;4.28;3.00;;;;;;;;;;4955888;28;20473;-75
2021/08/03 01:17:11;;;;;;;4.75;3.03;;;;;;;;;;4955706;28;20031;-68
2021/08/03 01:19:47;;;;;;;5.10;3.33;;;;;;;;;;4959387;28;20027;-74
2021/08/03 01:22:15;;;;;;;6.13;3.10;;;;;;;;;;4954731;28;20440;-77
2021/08/03 01:24:45;;;;;;;3.90;3.00;;;;;;;;;;4956054;29;20023;-72
2021/08/03 01:27:13;;;;;;;4.30;3.10;;;;;;;;;;4955572;29;20382;-72
2021/08/03 01:29:41;;;;;;;4.20;3.00;;;;;;;;;;4955646;28;20040;-73
2021/08/03 01:32:10;;;;;;;5.50;3.08;;;;;;;;;;4955131;29;20047;-73
2021/08/03 01:34:40;;;;;;;4.63;3.08;;;;;;;;;;4954968;28;20401;-76
2021/08/03 01:37:06;;;;;;;6.95;3.00;;;;;;;;;;4955328;28;20399;-73
2021/08/03 01:39:35;;;;;;;6.47;3.58;;;;;;;;;;4955331;28;20039;-70
2021/08/03 01:42:01;;;;;;;3.95;3.10;;;;;;;;;;4956811;29;20035;-72
2021/08/03 01:44:27;;;;;;;4.53;3.30;;;;;;;;;;4955133;28;20129;-75
2021/08/03 01:46:54;;;;;;;5.55;3.13;;;;;;;;;;4955186;29;20031;-69
2021/08/03 01:49:22;;;;;;;4.70;2.95;;;;;;;;;;4954932;28;20489;-71
2021/08/03 01:51:48;;;;;;;4.85;2.80;;;;;;;;;;4954977;29;20370;-72
2021/08/03 01:54:15;;;;;;;6.78;3.40;;;;;;;;;;4954011;28;21607;-73
2021/08/03 01:56:42;;;;;;;5.07;2.90;;;;;;;;;;4954875;28;20512;-74
2021/08/03 01:59:09;;;;;;;4.63;3.30;;;;;;;;;;4955165;29;20572;-73
2021/08/03 02:01:36;;;;;;;5.32;3.25;;;;;;;;;;4954825;28;20039;-68
2021/08/03 02:04:03;;;;;;;7.72;3.20;;;;;;;;;;4954145;29;20023;-68
2021/08/03 02:06:30;;;;;;;5.45;3.15;;;;;;;;;;4954358;28;20070;-75
2021/08/03 02:08:57;;;;;;;7.28;3.17;;;;;;;;;;4954512;28;20130;-72
2021/08/03 02:11:29;;;;;;;7.05;3.10;;;;;;;;;;4954255;29;20497;-72
2021/08/03 02:13:55;;;;;;;3.92;2.80;;;;;;;;;;4954467;29;20106;-74
2021/08/03 02:16:24;;;;;;;5.13;3.00;;;;;;;;;;4954561;29;20095;-69
2021/08/03 02:18:51;;;;;;;4.53;3.08;;;;;;;;;;4954172;29;20106;-74
2021/08/03 02:21:17;;;;;;;5.30;3.10;;;;;;;;;;4954532;29;20033;-75
2021/08/03 02:23:46;;;;;;;4.28;2.95;;;;;;;;;;4954096;29;20030;-69
2021/08/03 02:26:12;;;;;;;5.40;3.10;;;;;;;;;;4954477;29;20074;-74
2021/08/03 02:28:54;;;;;;;6.30;3.13;;;;;;;;;;4963109;29;20039;-70
2021/08/03 02:31:24;;;;;;;4.78;2.70;;;;;;;;;;4954153;28;20483;-69
2021/08/03 02:33:55;;;;;;;5.68;3.38;;;;;;;;;;4954109;29;20034;-74
2021/08/03 02:36:23;;;;;;;4.07;3.25;;;;;;;;;;4953720;29;20027;-67
2021/08/03 02:38:55;;;;;;;4.35;2.80;;;;;;;;;;4954224;29;20026;-70
2021/08/03 02:41:21;;;;;;;5.40;3.20;;;;;;;;;;4954291;29;20051;-69
2021/08/03 02:43:48;;;;;;;3.88;2.83;;;;;;;;;;4958279;28;20035;-73
2021/08/03 02:46:16;;;;;;;4.20;3.03;;;;;;;;;;4953599;29;20058;-74
2021/08/03 02:48:59;;;;;;;4.10;2.75;;;;;;;;;;4953508;29;20385;-71
2021/08/03 02:51:28;;;;;;;4.05;2.75;;;;;;;;;;4953807;29;20039;-69
2021/08/03 02:53:55;;;;;;;3.00;2.47;;;;;;;;;;4954216;29;20052;-68
2021/08/03 02:56:23;;;;;;;3.17;2.63;;;;;;;;;;4953566;29;20035;-77
2021/08/03 02:58:55;;;;;;;4.25;2.65;;;;;;;;;;4958988;29;20028;-73
2021/08/03 03:01:23;;;;;;;3.53;2.67;;;;;;;;;;4953780;29;20034;-73
2021/08/03 03:03:51;;;;;;;4.57;2.70;;;;;;;;;;4953237;29;20027;-68
2021/08/03 03:06:18;;;;;;;4.10;2.50;;;;;;;;;;4952914;28;20023;-67
2021/08/03 03:08:44;;;;;;;8.55;2.60;;;;;;;;;;4953581;28;20127;-68
2021/08/03 03:11:12;;;;;;;6.68;2.75;;;;;;;;;;4953721;28;20054;-67
2021/08/03 03:13:43;;;;;;;5.07;2.65;;;;;;;;;;4953581;29;20034;-75
2021/08/03 03:16:11;;;;;;;4.90;2.70;;;;;;;;;;4954267;29;20438;-73
2021/08/03 03:18:38;;;;;;;5.43;2.75;;;;;;;;;;4953280;29;20027;-74
2021/08/03 03:21:07;;;;;;;3.70;2.50;;;;;;;;;;4953385;29;20086;-68
2021/08/03 03:23:35;;;;;;;3.55;2.60;;;;;;;;;;4953373;29;20408;-68
2021/08/03 03:26:02;;;;;;;3.78;2.65;;;;;;;;;;4953425;29;20780;-68
2021/08/03 03:28:29;;;;;;;3.50;2.50;;;;;;;;;;4953151;29;20038;-73
2021/08/03 03:30:58;;;;;;;4.65;2.40;;;;;;;;;;4950399;29;20409;-70
2021/08/03 03:33:27;;;;;;;4.82;2.30;;;;;;;;;;4953130;29;20023;-67
2021/08/03 03:35:54;;;;;;;6.25;2.63;;;;;;;;;;4953286;29;20088;-73
2021/08/03 03:38:23;;;;;;;4.38;2.72;;;;;;;;;;4946102;29;20031;-67
2021/08/03 03:40:50;;;;;;;3.30;2.55;;;;;;;;;;4954814;28;20036;-68
2021/08/03 03:43:20;;;;;;;3.60;2.50;;;;;;;;;;4953659;29;20444;-71
2021/08/03 03:45:47;;;;;;;4.47;2.47;;;;;;;;;;4952551;29;20441;-70
2021/08/03 03:48:15;;;;;;;5.53;2.42;;;;;;;;;;4930853;29;20386;-73
2021/08/03 03:50:47;;;;;;;6.68;2.60;;;;;;;;;;4953043;29;20081;-72
2021/08/03 03:53:16;;;;;;;5.68;2.60;;;;;;;;;;4952658;28;20034;-73
2021/08/03 03:55:47;;;;;;;4.22;2.60;;;;;;;;;;4952967;29;20027;-74
2021/08/03 03:58:16;;;;;;;3.58;2.30;;;;;;;;;;4948822;28;20023;-71
2021/08/03 04:00:53;;;;;;;4.55;2.40;;;;;;;;;;4968314;28;20051;-73
2021/08/03 04:03:25;;;;;;;4.57;2.42;;;;;;;;;;4936659;29;20396;-75
2021/08/03 04:05:53;;;;;;;4.63;2.63;;;;;;;;;;4952996;29;20213;-68
2021/08/03 04:08:21;;;;;;;5.18;3.03;;;;;;;;;;4952736;28;20047;-74
2021/08/03 04:10:48;;;;;;;4.07;2.60;;;;;;;;;;4952058;29;20168;-74
2021/08/03 04:13:14;;;;;;;3.72;2.55;;;;;;;;;;4948252;29;20023;-72
2021/08/03 04:15:40;;;;;;;6.70;2.60;;;;;;;;;;4955282;28;20118;-70
2021/08/03 04:18:06;;;;;;;6.55;2.63;;;;;;;;;;4953705;28;20024;-69
2021/08/03 04:20:32;;;;;;;3.17;2.50;;;;;;;;;;4956843;29;20046;-67
2021/08/03 04:23:01;;;;;;;4.00;2.80;;;;;;;;;;4948356;29;20030;-67
2021/08/03 04:25:27;;;;;;;3.70;2.50;;;;;;;;;;4956763;29;20030;-87
2021/08/03 04:27:53;;;;;;;5.25;2.85;;;;;;;;;;4952279;28;20418;-63
2021/08/03 04:30:19;;;;;;;4.75;2.90;;;;;;;;;;4955888;29;20493;-62
2021/08/03 04:32:45;;;;;;;4.47;2.80;;;;;;;;;;4955569;28;20023;-72
2021/08/03 04:35:12;;;;;;;9.45;3.58;;;;;;;;;;4957341;28;20039;-73
2021/08/03 04:37:42;;;;;;;4.95;3.60;;;;;;;;;;4954550;29;20110;-70
2021/08/03 04:40:08;;;;;;;5.63;3.65;;;;;;;;;;4956012;28;20422;-67
2021/08/03 04:42:35;;;;;;;4.97;3.03;;;;;;;;;;4958636;28;20450;-65
2021/08/03 04:45:01;;;;;;;4.72;3.30;;;;;;;;;;4954981;28;20102;-61
2021/08/03 04:47:27;;;;;;;4.43;2.95;;;;;;;;;;4958413;28;20043;-72
2021/08/03 04:49:53;;;;;;;7.25;3.15;;;;;;;;;;4955383;28;20035;-70
2021/08/03 04:52:19;;;;;;;5.72;2.60;;;;;;;;;;4955919;28;20058;-61
2021/08/03 04:54:45;;;;;;;7.65;3.00;;;;;;;;;;4956624;28;20110;-62
2021/08/03 04:57:11;;;;;;;7.78;2.80;;;;;;;;;;4956008;28;20110;-63
2021/08/03 04:59:37;;;;;;;4.43;2.67;;;;;;;;;;4955883;28;20055;-61
2021/08/03 05:02:04;;;;;;;3.95;2.70;;;;;;;;;;4955661;28;20511;-62
2021/08/03 05:04:33;;;;;;;6.93;2.90;;;;;;;;;;4955853;28;20075;-64
2021/08/03 05:07:00;;;;;;;4.63;2.75;;;;;;;;;;4940179;28;20397;-62
2021/08/03 05:09:26;;;;;;;6.47;2.80;;;;;;;;;;4955758;28;20389;-64
2021/08/03 05:11:52;;;;;;;4.65;2.60;;;;;;;;;;4954982;28;20474;-67
2021/08/03 05:14:18;;;;;;;5.05;2.60;;;;;;;;;;4955648;28;20027;-70
2021/08/03 05:16:44;;;;;;;24.20;3.38;;;;;;;;;;4955446;29;20039;-72
2021/08/03 05:19:13;;;;;;;8.30;2.72;;;;;;;;;;4954796;29;20035;-74
2021/08/03 05:21:39;;;;;;;4.40;2.85;;;;;;;;;;4955681;29;20164;-72
2021/08/03 05:24:05;;;;;;;6.82;2.72;;;;;;;;;;4954770;28;20030;-64
2021/08/03 05:26:31;;;;;;;5.68;2.88;;;;;;;;;;4955610;29;20031;-62
2021/08/03 05:28:57;;;;;;;5.45;3.00;;;;;;;;;;4956165;28;20072;-60
2021/08/03 05:31:23;;;;;;;6.65;3.08;;;;;;;;;;4955639;29;20070;-70
2021/08/03 05:33:49;;;;;;;4.50;2.70;;;;;;;;;;4955111;29;20489;-73
2021/08/03 05:36:15;;;;;;;9.52;3.25;;;;;;;;;;4955353;29;20761;-63
2021/08/03 05:38:42;;;;;;;6.70;2.80;;;;;;;;;;4955196;29;20330;-74
2021/08/03 05:41:08;;;;;;;3.88;2.60;;;;;;;;;;4937989;28;20035;-75
2021/08/03 05:43:34;;;;;;;6.85;2.85;;;;;;;;;;4955125;29;20031;-64
2021/08/03 05:46:00;;;;;;;8.45;2.70;;;;;;;;;;4955107;29;20170;-62
2021/08/03 05:48:26;;;;;;;3.83;2.58;;;;;;;;;;4955896;29;20473;-71
2021/08/03 05:50:52;;;;;;;4.07;2.50;;;;;;;;;;4955401;29;20840;-62
2021/08/03 05:53:18;;;;;;;5.10;3.00;;;;;;;;;;4954298;29;20106;-61
2021/08/03 05:55:44;;;;;;;5.25;2.88;;;;;;;;;;4955014;29;20033;-72
2021/08/03 05:58:10;;;;;;;7.45;2.92;;;;;;;;;;4955857;29;20094;-61
2021/08/03 06:00:37;;;;;;;8.50;2.50;;;;;;;;;;4955054;29;20027;-65
2021/08/03 06:03:03;;;;;;;3.75;2.40;;;;;;;;;;4954386;29;20027;-66
2021/08/03 06:05:31;;;;;;;4.10;2.33;;;;;;;;;;4954774;29;20110;-75
2021/08/03 06:08:00;;;;;;;4.20;2.28;;;;;;;;;;4954464;28;20398;-62
2021/08/03 06:10:30;;;;;;;6.97;2.40;;;;;;;;;;4954119;29;20047;-73
2021/08/03 06:12:57;;;;;;;5.20;2.47;;;;;;;;;;4954899;29;20082;-72
2021/08/03 06:15:24;;;;;;;7.25;4.00;;;;;;;;;;4954494;29;20045;-70
2021/08/03 06:17:51;;;;;;;7.22;3.22;;;;;;;;;;4954604;29;20073;-72
2021/08/03 06:20:17;;;;;;;14.07;2.97;;;;;;;;;;4954430;29;20049;-69
2021/08/03 06:22:43;;;;;;;5.47;2.90;;;;;;;;;;4954542;29;20027;-70
2021/08/03 06:25:13;;;;;;;5.20;2.70;;;;;;;;;;4954399;29;20050;-64
2021/08/03 06:27:40;;;;;;;3.15;2.60;;;;;;;;;;4954112;29;20027;-65
2021/08/03 06:30:07;;;;;;;6.63;2.97;;;;;;;;;;4954652;29;20122;-72
2021/08/03 06:32:33;;;;;;;5.38;3.03;;;;;;;;;;4953937;29;20066;-70
2021/08/03 06:35:00;;;;;;;6.50;3.00;;;;;;;;;;4953726;29;20035;-69
2021/08/03 06:37:26;;;;;;;6.80;2.70;;;;;;;;;;4954489;29;20038;-70
2021/08/03 06:39:52;;;;;;;6.82;3.13;;;;;;;;;;4954238;28;20035;-64
2021/08/03 06:42:37;;;;;;;5.88;3.35;;;;;;;;;;4953705;29;20496;-69
2021/08/03 06:45:06;;;;;;;4.88;2.70;;;;;;;;;;4953998;29;20117;-75
2021/08/03 06:47:40;;;;;;;12.05;3.40;;;;;;;;;;4954070;28;20032;-72
2021/08/03 06:50:09;;;;;;;8.80;3.10;;;;;;;;;;4954326;29;20031;-74
2021/08/03 06:52:36;;;;;;;3.88;2.80;;;;;;;;;;4953951;29;20118;-71
2021/08/03 06:55:04;;;;;;;7.57;2.67;;;;;;;;;;4954008;29;20102;-74
2021/08/03 06:57:33;;;;;;;6.78;2.78;;;;;;;;;;4953518;29;20027;-71
2021/08/03 07:00:02;;;;;;;6.82;2.83;;;;;;;;;;4954149;29;20019;-63
2021/08/03 07:02:33;;;;;;;15.00;3.15;;;;;;;;;;4953755;29;20034;-71
2021/08/03 07:05:02;;;;;;;6.07;3.13;;;;;;;;;;4954086;29;20024;-61
2021/08/03 07:07:28;;;;;;;5.55;2.88;;;;;;;;;;4953221;28;20114;-73
2021/08/03 07:09:55;;;;;;;9.73;3.22;;;;;;;;;;4953730;29;20036;-69
2021/08/03 07:12:22;;;;;;;6.57;3.15;;;;;;;;;;4953924;29;20058;-72
2021/08/03 07:14:48;;;;;;;4.13;2.72;;;;;;;;;;4955207;29;20035;-62
2021/08/03 07:17:15;;;;;;;28.23;3.90;;;;;;;;;;4953106;29;20031;-77
2021/08/03 07:19:42;;;;;;;5.97;2.70;;;;;;;;;;4953190;29;20528;-73
2021/08/03 07:22:12;;;;;;;4.82;2.92;;;;;;;;;;4953986;29;20389;-74
2021/08/03 07:24:38;;;;;;;4.55;2.92;;;;;;;;;;4952903;29;20031;-78
2021/08/03 07:27:05;;;;;;;8.65;2.95;;;;;;;;;;4953283;29;20028;-64
2021/08/03 07:29:31;;;;;;;4.20;2.80;;;;;;;;;;4952527;29;20074;-77
2021/08/03 07:31:57;;;;;;;13.25;3.65;;;;;;;;;;4954061;29;20039;-64
2021/08/03 07:34:25;;;;;;;6.65;3.40;;;;;;;;;;4953113;29;20030;-78
2021/08/03 07:36:51;;;;;;;7.32;3.10;;;;;;;;;;4952772;29;20629;-60
2021/08/03 07:39:17;;;;;;;12.68;3.67;;;;;;;;;;4953764;29;20123;-74
2021/08/03 07:41:44;;;;;;;5.85;3.10;;;;;;;;;;4954443;29;20059;-72
2021/08/03 07:44:10;;;;;;;7.88;3.03;;;;;;;;;;4954047;29;20031;-62
2021/08/03 07:46:36;;;;;;;5.95;3.05;;;;;;;;;;4953097;29;20023;-77
2021/08/03 07:49:04;;;;;;;6.60;3.25;;;;;;;;;;4953398;28;20024;-75
2021/08/03 07:51:32;;;;;;;7.97;3.00;;;;;;;;;;4953232;28;20039;-77
2021/08/03 07:53:58;;;;;;;6.93;3.08;;;;;;;;;;4952665;29;20028;-62
2021/08/03 07:56:24;;;;;;;7.05;3.03;;;;;;;;;;4957140;29;20031;-61
2021/08/03 07:58:50;;;;;;;6.15;2.95;;;;;;;;;;4956236;29;20031;-76
2021/08/03 08:01:19;;;;;;;9.13;3.42;;;;;;;;;;4958149;29;20104;-71
2021/08/03 08:03:46;;;;;;;6.93;2.90;;;;;;;;;;4956829;28;20019;-68
2021/08/03 08:06:12;;;;;;;8.43;2.80;;;;;;;;;;4956377;28;20034;-64
2021/08/03 08:08:39;;;;;;;8.13;3.25;;;;;;;;;;4956050;28;20074;-74
2021/08/03 08:11:05;;;;;;;5.30;3.15;;;;;;;;;;4957257;29;20070;-82
2021/08/03 08:13:31;;;;;;;7.97;2.95;;;;;;;;;;4956184;28;20544;-68
2021/08/03 08:15:57;;;;;;;8.60;3.08;;;;;;;;;;4956738;28;20146;-62
2021/08/03 08:18:23;;;;;;;5.95;3.53;;;;;;;;;;4957201;29;20039;-69
2021/08/03 08:20:53;;;;;;;9.45;3.30;;;;;;;;;;4952528;28;20062;-71
2021/08/03 08:23:19;;;;;;;4.70;3.10;;;;;;;;;;4955998;28;20051;-73
2021/08/03 08:26:04;;;;;;;5.63;3.45;;;;;;;;;;4955850;29;20078;-72
2021/08/03 08:28:33;;;;;;;4.65;2.92;;;;;;;;;;4955969;29;20027;-71
2021/08/03 08:31:02;;;;;;;7.88;3.00;;;;;;;;;;4955520;29;20035;-72
2021/08/03 08:33:28;;;;;;;5.93;3.17;;;;;;;;;;4955153;28;20027;-70
2021/08/03 08:35:54;;;;;;;6.20;3.00;;;;;;;;;;4959953;28;20094;-72
2021/08/03 08:38:20;;;;;;;7.85;3.10;;;;;;;;;;4956120;28;20030;-70
2021/08/03 08:40:46;;;;;;;13.27;3.20;;;;;;;;;;4956001;29;20038;-71
2021/08/03 08:43:15;;;;;;;6.78;2.65;;;;;;;;;;4961732;28;20034;-71
2021/08/03 08:45:45;;;;;;;4.85;3.33;;;;;;;;;;4956079;28;20031;-73
2021/08/03 08:48:12;;;;;;;7.90;3.53;;;;;;;;;;4956121;28;20027;-69
2021/08/03 08:50:39;;;;;;;7.38;3.45;;;;;;;;;;4959667;28;20520;-71
2021/08/03 08:53:05;;;;;;;5.22;2.80;;;;;;;;;;4955855;29;20103;-74
2021/08/03 08:55:31;;;;;;;6.75;3.05;;;;;;;;;;4957665;28;20065;-64
2021/08/03 08:57:57;;;;;;;8.43;3.25;;;;;;;;;;4955554;29;20026;-81
2021/08/03 09:00:24;;;;;;;5.68;2.90;;;;;;;;;;4954904;29;20226;-75
2021/08/03 09:02:59;;;;;;;7.05;2.97;;;;;;;;;;4938449;29;20027;-71
2021/08/03 09:05:37;;;;;;;4.95;2.78;;;;;;;;;;4954122;29;20038;-75
2021/08/03 09:08:04;;;;;;;8.18;3.00;;;;;;;;;;4941517;28;20528;-80
2021/08/03 09:10:49;;;;;;;8.10;2.95;;;;;;;;;;4955586;29;20039;-73
2021/08/03 09:13:15;;;;;;;8.38;2.80;;;;;;;;;;4954016;29;20086;-74
2021/08/03 09:15:43;;;;;;;7.75;2.80;;;;;;;;;;4954953;29;20023;-74
2021/08/03 09:18:09;;;;;;;7.88;2.83;;;;;;;;;;4956117;28;20039;-72
2021/08/03 09:20:35;;;;;;;7.85;2.40;;;;;;;;;;4954970;29;20035;-76
2021/08/03 09:23:02;;;;;;;11.70;2.80;;;;;;;;;;4956045;28;20496;-73
2021/08/03 09:25:28;;;;;;;7.88;2.67;;;;;;;;;;4954958;28;20031;-71
2021/08/03 09:28:01;;;;;;;5.30;3.25;;;;;;;;;;4955785;29;20058;-72
2021/08/03 09:30:27;;;;;;;;;;;;;;;;;;4955767;28;20042;-81
2021/08/03 09:32:53;;;;;;;4.32;2.80;;;;;;;;;;4955254;29;19906;-78
2021/08/03 09:35:21;;;;;;;4.38;2.70;;;;;;;;;;4953595;29;20031;-72
2021/08/03 09:38:16;;;;;;;4.97;2.65;;;;;;;;;;4949131;28;20050;-70
2021/08/03 09:40:42;;;;;;;8.75;2.50;;;;;;;;;;4876451;29;20488;-75
2021/08/03 09:43:16;;;;;;;5.13;2.88;;;;;;;;;;4874633;29;20464;-70
2021/08/03 09:45:44;;;;;;;5.75;2.70;;;;;;;;;;4876837;29;20584;-71
2021/08/03 09:48:19;;;;;;;4.72;2.70;;;;;;;;;;4876458;29;20107;-71
2021/08/03 09:50:55;;;;;;;7.43;3.15;;;;;;;;;;4874642;29;20064;-74
2021/08/03 09:53:51;;;;;;;4.60;2.90;;;;;;;;;;4876176;29;20083;-71
2021/08/03 09:56:19;;;;;;;5.32;3.00;;;;;;;;;;4876169;29;20411;-71
2021/08/03 09:59:04;;;;;;;5.07;3.10;;;;;;;;;;4877038;29;20061;-70
2021/08/03 10:01:34;;;;;;;4.88;2.67;;;;;;;;;;4875489;29;20045;-70
2021/08/03 10:04:01;;;;;;;5.20;2.60;;;;;;;;;;4873135;29;20072;-73
2021/08/03 10:06:28;;;;;;;5.22;2.47;;;;;;;;;;4876207;29;20044;-70
2021/08/03 10:08:54;;;;;;;7.43;3.15;;;;;;;;;;4876219;29;20065;-77
2021/08/03 10:11:23;;;;;;;4.65;3.30;;;;;;;;;;4918229;28;20043;-64
2021/08/03 10:13:52;;;;;;;4.32;2.60;;;;;;;;;;4954231;28;20065;-66
2021/08/03 10:16:19;;;;;;;3.90;2.90;;;;;;;;;;4953210;28;20031;-67
2021/08/03 10:18:47;;;;;;;12.27;3.20;;;;;;;;;;4954735;28;20031;-69
2021/08/03 10:21:31;;;;;;;6.22;3.33;;;;;;;;;;4954889;29;20031;-77
2021/08/03 10:24:03;;;;;;;6.97;3.03;;;;;;;;;;4953043;29;20906;-76
2021/08/03 10:26:29;;;;;;;7.20;3.20;;;;;;;;;;4952965;28;20062;-77
2021/08/03 10:29:14;;;;;;;4.93;3.00;;;;;;;;;;4953383;29;20113;-76
2021/08/03 10:31:41;;;;;;;4.95;3.22;;;;;;;;;;4952520;28;20133;-76
2021/08/03 10:34:07;;;;;;;7.13;3.58;;;;;;;;;;4937282;28;20118;-76
2021/08/03 10:36:37;;;;;;;8.20;3.60;;;;;;;;;;4952153;28;20118;-80
2021/08/03 10:39:20;;;;;;;8.18;3.67;;;;;;;;;;4954524;29;20035;-74
2021/08/03 10:42:01;;;;;;;6.20;3.47;;;;;;;;;;4953341;29;20038;-70
2021/08/03 10:44:39;;;;;;;6.03;3.40;;;;;;;;;;4953466;28;20446;-71
2021/08/03 10:47:25;;;;;;;5.60;3.30;;;;;;;;;;4953952;29;20070;-79
2021/08/03 10:49:58;;;;;;;6.57;3.40;;;;;;;;;;4936735;29;20047;-74
2021/08/03 10:52:32;;;;;;;;;;;;;;;;;;4953958;29;20039;-77
2021/08/03 10:54:58;;;;;;;6.30;3.50;;;;;;;;;;4935033;29;19910;-83
2021/08/03 10:57:27;;;;;;;5.72;3.50;;;;;;;;;;4953741;29;20122;-75
2021/08/03 11:00:29;;;;;;;5.22;3.92;;;;;;;;;;4936412;29;20504;-78
2021/08/03 11:02:58;;;;;;;7.65;3.88;;;;;;;;;;4952004;28;20035;-69
2021/08/03 11:05:27;;;;;;;6.57;3.90;;;;;;;;;;4953041;29;20037;-68
2021/08/03 11:07:53;;;;;;;8.07;4.00;;;;;;;;;;4952287;28;20070;-75
2021/08/03 11:10:20;;;;;;;6.25;3.92;;;;;;;;;;4935594;29;20055;-73
2021/08/03 11:12:48;;;;;;;8.48;3.70;;;;;;;;;;4952922;28;20039;-73
2021/08/03 11:15:26;;;;;;;8.77;3.90;;;;;;;;;;4952446;28;20038;-72
2021/08/03 11:17:54;;;;;;;16.50;4.78;;;;;;;;;;4951638;28;20049;-74
2021/08/03 11:20:41;;;;;;;13.55;4.35;;;;;;;;;;4953852;29;20027;-69
2021/08/03 11:23:08;;;;;;;6.68;3.80;;;;;;;;;;4952857;28;20037;-79
2021/08/03 11:25:34;;;;;;;7.75;3.92;;;;;;;;;;4952520;28;20027;-77
2021/08/03 11:28:10;;;;;;;6.93;4.00;;;;;;;;;;4957258;28;20035;-67
2021/08/03 11:30:47;;;;;;;13.20;4.35;;;;;;;;;;4953106;29;20065;-73
2021/08/03 11:33:25;;;;;;;5.78;4.10;;;;;;;;;;4952004;28;20413;-73
2021/08/03 11:35:54;;;;;;;5.53;3.80;;;;;;;;;;4934820;29;20031;-72
2021/08/03 11:38:22;;;;;;;5.25;3.92;;;;;;;;;;4950980;28;20542;-77
2021/08/03 11:40:51;;;;;;;11.45;4.22;;;;;;;;;;4952602;29;20497;-70
2021/08/03 11:43:17;;;;;;;9.48;3.97;;;;;;;;;;4946465;29;20046;-71
2021/08/03 11:45:43;;;;;;;6.85;4.10;;;;;;;;;;4934104;29;20046;-71
2021/08/03 11:48:17;;;;;;;12.30;4.10;;;;;;;;;;4952755;28;20031;-66
2021/08/03 11:50:43;;;;;;;5.05;3.55;;;;;;;;;;4952080;29;20043;-70
2021/08/03 11:53:13;;;;;;;7.63;4.40;;;;;;;;;;4952510;29;20102;-70
2021/08/03 11:55:43;;;;;;;9.80;4.50;;;;;;;;;;4955604;28;20031;-70
2021/08/03 11:58:10;;;;;;;5.68;3.95;;;;;;;;;;4951918;29;20080;-69
2021/08/03 12:00:37;;;;;;;10.63;4.70;;;;;;;;;;4954828;28;20030;-70
2021/08/03 12:03:04;;;;;;;6.78;4.82;;;;;;;;;;4951520;29;20027;-68
2021/08/03 12:05:31;;;;;;;8.20;4.50;;;;;;;;;;4952901;28;20023;-71
2021/08/03 12:07:57;;;;;;;8.90;4.70;;;;;;;;;;4952039;28;20063;-67
2021/08/03 12:10:24;;;;;;;10.07;4.75;;;;;;;;;;4952890;29;20026;-70
2021/08/03 12:12:51;;;;;;;8.63;4.30;;;;;;;;;;4958974;28;20075;-65
2021/08/03 12:15:18;;;;;;;10.68;5.00;;;;;;;;;;4952273;29;20027;-69
2021/08/03 12:17:45;;;;;;;8.68;5.18;;;;;;;;;;4952788;28;20043;-68
2021/08/03 12:20:28;;;;;;;8.48;4.50;;;;;;;;;;4952413;28;20023;-70
2021/08/03 12:22:55;;;;;;;7.30;4.38;;;;;;;;;;4956066;29;20392;-63
2021/08/03 12:25:22;;;;;;;8.55;4.85;;;;;;;;;;4953270;29;20086;-65
2021/08/03 12:27:51;;;;;;;7.47;4.40;;;;;;;;;;4953922;29;20027;-69
2021/08/03 12:30:35;;;;;;;6.18;4.32;;;;;;;;;;4953474;29;20523;-69
2021/08/03 12:33:01;;;;;;;10.35;6.63;;;;;;;;;;4952205;29;20063;-68
2021/08/03 12:35:28;;;;;;;6.38;4.43;;;;;;;;;;4953329;29;20019;-70
2021/08/03 12:38:10;;;;;;;6.60;4.88;;;;;;;;;;4951956;28;20114;-82
2021/08/03 12:40:36;;;;;;;6.65;4.50;;;;;;;;;;4949097;29;20035;-66
2021/08/03 12:43:03;;;;;;;10.93;4.28;;;;;;;;;;4955270;29;20106;-78
2021/08/03 12:45:30;;;;;;;10.40;4.75;;;;;;;;;;4938904;29;20034;-71
2021/08/03 12:47:56;;;;;;;5.75;4.28;;;;;;;;;;4953678;28;20035;-69
2021/08/03 12:50:22;;;;;;;11.30;4.75;;;;;;;;;;4955183;29;20054;-69
2021/08/03 12:52:55;;;;;;;7.80;4.63;;;;;;;;;;4955671;29;20065;-70
2021/08/03 12:55:31;;;;;;;7.18;4.70;;;;;;;;;;4956039;29;20031;-71
2021/08/03 12:57:58;;;;;;;7.03;4.53;;;;;;;;;;4956168;29;20031;-69
2021/08/03 13:00:36;;;;;;;10.57;5.00;;;;;;;;;;4955770;29;20115;-69
2021/08/03 13:03:07;;;;;;;11.98;4.70;;;;;;;;;;4955674;29;20118;-71
2021/08/03 13:05:35;;;;;;;6.05;4.13;;;;;;;;;;4955983;29;20027;-69
2021/08/03 13:08:01;;;;;;;9.35;4.47;;;;;;;;;;4955382;28;20512;-70
2021/08/03 13:10:27;;;;;;;5.60;3.92;;;;;;;;;;4954420;29;20096;-69
2021/08/03 13:12:54;;;;;;;7.28;4.20;;;;;;;;;;4955757;29;20437;-82
2021/08/03 13:15:20;;;;;;;7.97;4.07;;;;;;;;;;4955803;28;20023;-64
2021/08/03 13:17:46;;;;;;;7.43;3.90;;;;;;;;;;4955891;29;20027;-68
2021/08/03 13:20:13;;;;;;;5.18;3.88;;;;;;;;;;4954204;28;20055;-70
2021/08/03 13:22:39;;;;;;;6.00;4.10;;;;;;;;;;4955418;29;20035;-68
2021/08/03 13:25:06;;;;;;;30.83;11.38;;;;;;;;;;4955787;29;20386;-71
2021/08/03 13:27:32;;;;;;;4.85;3.95;;;;;;;;;;4955052;28;20086;-64
2021/08/03 13:29:58;;;;;;;6.35;4.40;;;;;;;;;;4953506;29;20026;-69
2021/08/03 13:32:24;;;;;;;7.85;4.43;;;;;;;;;;4954143;28;20417;-65
2021/08/03 13:34:51;;;;;;;9.40;5.32;;;;;;;;;;4955291;28;20038;-71
2021/08/03 13:37:21;;;;;;;11.63;4.78;;;;;;;;;;4954303;28;20023;-73
2021/08/03 13:39:47;;;;;;;5.57;4.18;;;;;;;;;;4954468;28;20035;-71
2021/08/03 13:42:13;;;;;;;6.65;3.70;;;;;;;;;;4954713;28;20102;-81
2021/08/03 13:44:39;;;;;;;7.80;4.20;;;;;;;;;;4955017;29;20027;-75
2021/08/03 13:47:09;;;;;;;8.32;4.50;;;;;;;;;;4954666;29;20031;-76
2021/08/03 13:49:35;;;;;;;6.80;4.40;;;;;;;;;;4935046;28;20106;-76
2021/08/03 13:52:02;;;;;;;15.77;5.03;;;;;;;;;;4953988;28;20119;-78
2021/08/03 13:54:29;;;;;;;6.30;4.32;;;;;;;;;;4954364;29;20037;-81
2021/08/03 13:56:55;;;;;;;6.90;4.53;;;;;;;;;;4953538;28;20493;-78
2021/08/03 13:59:21;;;;;;;6.93;4.35;;;;;;;;;;4954858;28;20033;-66
2021/08/03 14:01:47;;;;;;;14.52;6.90;;;;;;;;;;4952794;29;20458;-65
2021/08/03 14:04:14;;;;;;;7.07;4.50;;;;;;;;;;4954369;28;20023;-69
2021/08/03 14:06:40;;;;;;;10.48;4.13;;;;;;;;;;4955408;28;20058;-64
2021/08/03 14:09:06;;;;;;;6.95;4.30;;;;;;;;;;4954339;28;20138;-65
2021/08/03 14:11:32;;;;;;;6.47;4.00;;;;;;;;;;4954732;29;20035;-66
2021/08/03 14:14:00;;;;;;;5.45;4.10;;;;;;;;;;4954559;29;20034;-62
2021/08/03 14:16:26;;;;;;;9.63;4.28;;;;;;;;;;4951689;29;20441;-68
2021/08/03 14:18:52;;;;;;;7.97;4.20;;;;;;;;;;4953894;29;20072;-73
2021/08/03 14:21:19;;;;;;;5.60;4.25;;;;;;;;;;4951031;28;20509;-73
2021/08/03 14:23:45;;;;;;;10.02;4.20;;;;;;;;;;4952940;29;20035;-63
2021/08/03 14:26:11;;;;;;;26.13;5.43;;;;;;;;;;4954384;29;20114;-65
2021/08/03 14:28:37;;;;;;;10.32;4.10;;;;;;;;;;4954666;29;20469;-64
2021/08/03 14:31:04;;;;;;;7.25;4.35;;;;;;;;;;4954465;29;20034;-67
2021/08/03 14:33:30;;;;;;;7.30;4.45;;;;;;;;;;4954539;29;20050;-69
2021/08/03 14:35:56;;;;;;;8.13;4.22;;;;;;;;;;4952687;29;20054;-63
2021/08/03 14:38:24;;;;;;;10.80;4.28;;;;;;;;;;4954186;29;20613;-70
2021/08/03 14:40:50;;;;;;;5.25;3.92;;;;;;;;;;4954677;28;20473;-62
2021/08/03 14:43:19;;;;;;;7.55;4.30;;;;;;;;;;4954322;29;20027;-69
2021/08/03 14:45:51;;;;;;;8.13;4.18;;;;;;;;;;4954088;29;20031;-67
2021/08/03 14:48:17;;;;;;;8.23;3.95;;;;;;;;;;4954600;28;20031;-61
2021/08/03 14:50:44;;;;;;;6.72;4.10;;;;;;;;;;4954120;29;20067;-61